DLH8NK EDDF-EDDS
Flight info
| Callsign | DLH8NK |
|---|---|
| Flight time | 0h 40m |
| Altitude | 17000 |
| Route | ANEKI2L/18 ANEKI Y163 NEKLO Y171 INKAM N850 KRH T128 BADSO BADSO2A |
| Aircraft | A20N/M-SDE2E3FGHIRWXY/LB1 |
Departure
| Time | 2026-05-05 16:58 |
|---|---|
| Airport | Frankfurt Main Airport (EDDF) |
Arrival
| Time | 2026-05-05 17:38 |
|---|---|
| Airport | Stuttgart Airport (EDDS) |
| Time | Latitude | Longitude | Altitude | Speed | Heading |
|---|---|---|---|---|---|
| 2026-05-05 16:32 | 50.04466 | 8.56484 | 362 ft | 0 kts | 160° |
| 2026-05-05 16:41 | 50.04472 | 8.56481 | 368 ft | 3 kts | 160° |
| 2026-05-05 16:41 | 50.04490 | 8.56471 | 365 ft | 3 kts | 160° |
| 2026-05-05 16:42 | 50.04509 | 8.56460 | 366 ft | 3 kts | 160° |
| 2026-05-05 16:42 | 50.04528 | 8.56451 | 363 ft | 3 kts | 174° |
| 2026-05-05 16:42 | 50.04538 | 8.56452 | 364 ft | 1 kts | 202° |
| 2026-05-05 16:42 | 50.04534 | 8.56449 | 364 ft | 1 kts | 208° |
| 2026-05-05 16:43 | 50.04525 | 8.56426 | 364 ft | 2 kts | 252° |
| 2026-05-05 16:43 | 50.04520 | 8.56402 | 362 ft | 1 kts | 250° |
| 2026-05-05 16:43 | 50.04513 | 8.56373 | 368 ft | 2 kts | 250° |
| 2026-05-05 16:43 | 50.04513 | 8.56372 | 368 ft | 0 kts | 250° |
| 2026-05-05 16:48 | 50.04512 | 8.56369 | 368 ft | 2 kts | 250° |
| 2026-05-05 16:48 | 50.04494 | 8.56294 | 365 ft | 13 kts | 249° |
| 2026-05-05 16:49 | 50.04461 | 8.56156 | 364 ft | 11 kts | 249° |
| 2026-05-05 16:49 | 50.04429 | 8.56048 | 363 ft | 11 kts | 230° |
| 2026-05-05 16:49 | 50.04374 | 8.56038 | 368 ft | 7 kts | 164° |
| 2026-05-05 16:49 | 50.04327 | 8.56063 | 363 ft | 7 kts | 160° |
| 2026-05-05 16:50 | 50.04269 | 8.56050 | 365 ft | 13 kts | 221° |
| 2026-05-05 16:50 | 50.04226 | 8.55884 | 368 ft | 18 kts | 249° |
| 2026-05-05 16:50 | 50.04183 | 8.55710 | 366 ft | 16 kts | 249° |
| 2026-05-05 16:50 | 50.04144 | 8.55554 | 363 ft | 14 kts | 249° |
| 2026-05-05 16:51 | 50.04112 | 8.55417 | 362 ft | 13 kts | 252° |
| 2026-05-05 16:51 | 50.04086 | 8.55299 | 364 ft | 11 kts | 250° |
| 2026-05-05 16:51 | 50.04061 | 8.55196 | 363 ft | 9 kts | 249° |
| 2026-05-05 16:51 | 50.04039 | 8.55107 | 363 ft | 8 kts | 249° |
| 2026-05-05 16:52 | 50.04013 | 8.55001 | 364 ft | 16 kts | 249° |
| 2026-05-05 16:52 | 50.03959 | 8.54778 | 363 ft | 25 kts | 249° |
| 2026-05-05 16:52 | 50.03903 | 8.54534 | 365 ft | 23 kts | 251° |
| 2026-05-05 16:52 | 50.03841 | 8.54327 | 364 ft | 19 kts | 242° |
| 2026-05-05 16:53 | 50.03787 | 8.54167 | 364 ft | 16 kts | 249° |
| 2026-05-05 16:53 | 50.03750 | 8.54015 | 366 ft | 16 kts | 250° |
| 2026-05-05 16:53 | 50.03697 | 8.53793 | 363 ft | 28 kts | 249° |
| 2026-05-05 16:53 | 50.03627 | 8.53514 | 363 ft | 27 kts | 249° |
| 2026-05-05 16:54 | 50.03565 | 8.53254 | 363 ft | 24 kts | 249° |
| 2026-05-05 16:54 | 50.03511 | 8.53026 | 364 ft | 22 kts | 250° |
| 2026-05-05 16:54 | 50.03459 | 8.52815 | 365 ft | 20 kts | 245° |
| 2026-05-05 16:54 | 50.03419 | 8.52675 | 365 ft | 11 kts | 247° |
| 2026-05-05 16:55 | 50.03369 | 8.52596 | 365 ft | 11 kts | 193° |
| 2026-05-05 16:55 | 50.03318 | 8.52593 | 363 ft | 0 kts | 179° |
| 2026-05-05 16:57 | 50.03313 | 8.52594 | 363 ft | 3 kts | 179° |
| 2026-05-05 16:57 | 50.03142 | 8.52596 | 366 ft | 56 kts | 180° |
| 2026-05-05 16:58 | 50.02542 | 8.52600 | 368 ft | 112 kts | 181° |
| 2026-05-05 16:58 | 50.01619 | 8.52612 | 481 ft | 141 kts | 181° |
| 2026-05-05 16:58 | 50.00659 | 8.52647 | 1001 ft | 137 kts | 182° |
| 2026-05-05 16:58 | 49.99698 | 8.52694 | 1507 ft | 139 kts | 181° |
| 2026-05-05 16:59 | 49.98726 | 8.52753 | 2024 ft | 141 kts | 181° |
| 2026-05-05 16:59 | 49.97694 | 8.52825 | 2342 ft | 156 kts | 180° |
| 2026-05-05 16:59 | 49.96547 | 8.52912 | 2646 ft | 175 kts | 180° |
| 2026-05-05 16:59 | 49.95248 | 8.53005 | 2960 ft | 199 kts | 180° |
| 2026-05-05 17:00 | 49.93806 | 8.53100 | 3360 ft | 221 kts | 180° |
| 2026-05-05 17:00 | 49.92236 | 8.53209 | 4203 ft | 225 kts | 180° |
| 2026-05-05 17:00 | 49.90670 | 8.53325 | 5241 ft | 226 kts | 179° |
| 2026-05-05 17:00 | 49.89092 | 8.53435 | 6176 ft | 230 kts | 179° |
| 2026-05-05 17:01 | 49.87470 | 8.53526 | 7034 ft | 235 kts | 179° |
| 2026-05-05 17:01 | 49.85828 | 8.53607 | 7952 ft | 237 kts | 179° |
| 2026-05-05 17:01 | 49.84176 | 8.53703 | 8917 ft | 239 kts | 178° |
| 2026-05-05 17:01 | 49.82506 | 8.53814 | 9929 ft | 241 kts | 178° |
| 2026-05-05 17:02 | 49.80840 | 8.53923 | 10850 ft | 243 kts | 178° |
| 2026-05-05 17:02 | 49.79138 | 8.54041 | 11730 ft | 247 kts | 177° |
| 2026-05-05 17:02 | 49.77399 | 8.54044 | 12583 ft | 252 kts | 184° |
| 2026-05-05 17:02 | 49.75594 | 8.53805 | 13146 ft | 271 kts | 184° |
| 2026-05-05 17:03 | 49.73631 | 8.53546 | 13494 ft | 295 kts | 184° |
| 2026-05-05 17:03 | 49.71497 | 8.53265 | 13777 ft | 319 kts | 184° |
| 2026-05-05 17:03 | 49.69204 | 8.52962 | 14020 ft | 342 kts | 184° |
| 2026-05-05 17:03 | 49.66748 | 8.52638 | 14232 ft | 364 kts | 184° |
| 2026-05-05 17:04 | 49.64201 | 8.52303 | 14433 ft | 384 kts | 185° |
| 2026-05-05 17:04 | 49.61479 | 8.51944 | 14630 ft | 401 kts | 185° |
| 2026-05-05 17:04 | 49.58656 | 8.51571 | 15128 ft | 409 kts | 185° |
| 2026-05-05 17:04 | 49.55811 | 8.51195 | 15798 ft | 412 kts | 185° |
| 2026-05-05 17:05 | 49.52938 | 8.50816 | 16393 ft | 416 kts | 185° |
| 2026-05-05 17:05 | 49.50044 | 8.50471 | 16734 ft | 418 kts | 181° |
| 2026-05-05 17:05 | 49.47152 | 8.50871 | 16803 ft | 417 kts | 168° |
| 2026-05-05 17:05 | 49.44435 | 8.52316 | 16703 ft | 410 kts | 154° |
| 2026-05-05 17:06 | 49.42112 | 8.54731 | 16545 ft | 399 kts | 139° |
| 2026-05-05 17:06 | 49.40271 | 8.57752 | 16380 ft | 386 kts | 133° |
| 2026-05-05 17:06 | 49.38530 | 8.60789 | 16215 ft | 370 kts | 133° |
| 2026-05-05 17:06 | 49.36867 | 8.63699 | 16052 ft | 355 kts | 133° |
| 2026-05-05 17:07 | 49.35256 | 8.66524 | 15644 ft | 349 kts | 133° |
| 2026-05-05 17:07 | 49.33664 | 8.69319 | 15145 ft | 347 kts | 133° |
| 2026-05-05 17:07 | 49.32080 | 8.72104 | 14657 ft | 345 kts | 133° |
| 2026-05-05 17:07 | 49.30508 | 8.74874 | 14179 ft | 343 kts | 133° |
| 2026-05-05 17:08 | 49.28950 | 8.77625 | 13699 ft | 341 kts | 133° |
| 2026-05-05 17:08 | 49.27400 | 8.80367 | 13176 ft | 339 kts | 133° |
| 2026-05-05 17:08 | 49.25872 | 8.83068 | 12772 ft | 331 kts | 133° |
| 2026-05-05 17:08 | 49.24400 | 8.85672 | 12500 ft | 314 kts | 133° |
| 2026-05-05 17:09 | 49.23014 | 8.88138 | 12239 ft | 298 kts | 133° |
| 2026-05-05 17:09 | 49.21678 | 8.90533 | 11975 ft | 297 kts | 133° |
| 2026-05-05 17:09 | 49.20366 | 8.92903 | 11834 ft | 295 kts | 133° |
| 2026-05-05 17:09 | 49.19041 | 8.95297 | 11822 ft | 299 kts | 133° |
| 2026-05-05 17:10 | 49.17704 | 8.97717 | 11715 ft | 295 kts | 133° |
| 2026-05-05 17:10 | 49.16377 | 9.00134 | 11310 ft | 296 kts | 133° |
| 2026-05-05 17:10 | 49.15064 | 9.02542 | 10939 ft | 293 kts | 133° |
| 2026-05-05 17:10 | 49.13763 | 9.04930 | 10528 ft | 292 kts | 134° |
| 2026-05-05 17:11 | 49.12469 | 9.07309 | 10112 ft | 290 kts | 134° |
| 2026-05-05 17:11 | 49.11202 | 9.09643 | 9708 ft | 288 kts | 134° |
| 2026-05-05 17:11 | 49.09931 | 9.11985 | 9279 ft | 285 kts | 134° |
| 2026-05-05 17:11 | 49.08675 | 9.14304 | 8919 ft | 283 kts | 134° |
| 2026-05-05 17:12 | 49.07419 | 9.16632 | 8499 ft | 284 kts | 133° |
| 2026-05-05 17:12 | 49.06163 | 9.18935 | 8157 ft | 281 kts | 133° |
| 2026-05-05 17:12 | 49.04911 | 9.21213 | 7764 ft | 280 kts | 133° |
| 2026-05-05 17:12 | 49.03662 | 9.23474 | 7375 ft | 278 kts | 133° |
| 2026-05-05 17:13 | 49.02416 | 9.25722 | 7170 ft | 277 kts | 134° |
| 2026-05-05 17:13 | 49.01166 | 9.27972 | 7036 ft | 280 kts | 134° |
| 2026-05-05 17:13 | 48.99921 | 9.30247 | 6916 ft | 279 kts | 134° |
| 2026-05-05 17:13 | 48.98679 | 9.32522 | 6706 ft | 278 kts | 134° |
| 2026-05-05 17:14 | 48.97445 | 9.34773 | 6488 ft | 277 kts | 134° |
| 2026-05-05 17:14 | 48.96216 | 9.37003 | 6319 ft | 277 kts | 134° |
| 2026-05-05 17:14 | 48.94980 | 9.39238 | 6138 ft | 273 kts | 134° |
| 2026-05-05 17:14 | 48.94160 | 9.40716 | 6004 ft | 268 kts | 134° |
| 2026-05-05 17:15 | 48.92991 | 9.42825 | 5824 ft | 259 kts | 134° |
| 2026-05-05 17:15 | 48.91845 | 9.44886 | 5625 ft | 252 kts | 134° |
| 2026-05-05 17:15 | 48.90859 | 9.47109 | 5400 ft | 252 kts | 118° |
| 2026-05-05 17:15 | 48.90381 | 9.49633 | 5242 ft | 253 kts | 99° |
| 2026-05-05 17:16 | 48.90442 | 9.52261 | 5091 ft | 253 kts | 84° |
| 2026-05-05 17:16 | 48.90701 | 9.54909 | 4997 ft | 253 kts | 83° |
| 2026-05-05 17:16 | 48.90966 | 9.57544 | 4995 ft | 250 kts | 83° |
| 2026-05-05 17:16 | 48.91215 | 9.60143 | 5037 ft | 248 kts | 83° |
| 2026-05-05 17:17 | 48.91334 | 9.62753 | 5065 ft | 249 kts | 98° |
| 2026-05-05 17:17 | 48.90845 | 9.65243 | 5081 ft | 246 kts | 123° |
| 2026-05-05 17:17 | 48.89743 | 9.67154 | 5091 ft | 238 kts | 148° |
| 2026-05-05 17:17 | 48.88263 | 9.68130 | 5050 ft | 231 kts | 174° |
| 2026-05-05 17:18 | 48.86693 | 9.67990 | 5036 ft | 226 kts | 200° |
| 2026-05-05 17:18 | 48.85356 | 9.66794 | 5044 ft | 224 kts | 222° |
| 2026-05-05 17:18 | 48.84215 | 9.65184 | 5045 ft | 224 kts | 224° |
| 2026-05-05 17:18 | 48.83077 | 9.63556 | 5058 ft | 225 kts | 224° |
| 2026-05-05 17:19 | 48.81947 | 9.61939 | 5053 ft | 223 kts | 224° |
| 2026-05-05 17:19 | 48.80819 | 9.60322 | 5056 ft | 220 kts | 224° |
| 2026-05-05 17:19 | 48.79754 | 9.58805 | 5054 ft | 206 kts | 224° |
| 2026-05-05 17:19 | 48.78744 | 9.57347 | 5036 ft | 199 kts | 224° |
| 2026-05-05 17:20 | 48.77715 | 9.55891 | 5037 ft | 205 kts | 224° |
| 2026-05-05 17:20 | 48.76663 | 9.54415 | 4942 ft | 205 kts | 223° |
| 2026-05-05 17:20 | 48.75622 | 9.52954 | 4700 ft | 203 kts | 224° |
| 2026-05-05 17:20 | 48.74662 | 9.51405 | 4389 ft | 201 kts | 238° |
| 2026-05-05 17:21 | 48.74156 | 9.49450 | 4168 ft | 198 kts | 253° |
| 2026-05-05 17:21 | 48.73807 | 9.47463 | 4006 ft | 192 kts | 254° |
| 2026-05-05 17:21 | 48.73464 | 9.45556 | 3949 ft | 184 kts | 253° |
| 2026-05-05 17:22 | 48.72738 | 9.41930 | 3612 ft | 179 kts | 251° |
| 2026-05-05 17:22 | 48.72345 | 9.40144 | 3404 ft | 181 kts | 250° |
| 2026-05-05 17:22 | 48.72000 | 9.38332 | 3167 ft | 176 kts | 256° |
| 2026-05-05 17:22 | 48.71721 | 9.36541 | 2917 ft | 174 kts | 255° |
| 2026-05-05 17:23 | 48.71406 | 9.34796 | 2658 ft | 169 kts | 253° |
| 2026-05-05 17:23 | 48.71089 | 9.33161 | 2437 ft | 154 kts | 253° |
| 2026-05-05 17:23 | 48.70799 | 9.31694 | 2245 ft | 137 kts | 252° |
| 2026-05-05 17:23 | 48.70526 | 9.30309 | 2011 ft | 137 kts | 255° |
| 2026-05-05 17:24 | 48.70268 | 9.28910 | 1835 ft | 141 kts | 253° |
| 2026-05-05 17:24 | 48.69982 | 9.27452 | 1669 ft | 146 kts | 254° |
| 2026-05-05 17:24 | 48.69700 | 9.25976 | 1450 ft | 146 kts | 254° |
| 2026-05-05 17:24 | 48.69429 | 9.24520 | 1261 ft | 142 kts | 255° |
| 2026-05-05 17:25 | 48.69167 | 9.23146 | 1222 ft | 130 kts | 254° |
| 2026-05-05 17:25 | 48.68982 | 9.22157 | 1333 ft | 160 kts | 254° |
| 2026-05-05 17:25 | 48.68578 | 9.20037 | 2319 ft | 160 kts | 254° |
| 2026-05-05 17:25 | 48.68263 | 9.18363 | 2980 ft | 171 kts | 254° |
| 2026-05-05 17:26 | 48.67922 | 9.16574 | 3629 ft | 183 kts | 253° |
| 2026-05-05 17:26 | 48.67539 | 9.14636 | 4229 ft | 201 kts | 252° |
| 2026-05-05 17:26 | 48.67208 | 9.12571 | 4781 ft | 205 kts | 264° |
| 2026-05-05 17:26 | 48.67531 | 9.10445 | 5051 ft | 224 kts | 295° |
| 2026-05-05 17:27 | 48.68629 | 9.08682 | 5057 ft | 238 kts | 324° |
| 2026-05-05 17:27 | 48.70233 | 9.07965 | 5055 ft | 249 kts | 355° |
| 2026-05-05 17:27 | 48.71945 | 9.08519 | 5069 ft | 257 kts | 24° |
| 2026-05-05 17:27 | 48.73358 | 9.10143 | 5067 ft | 254 kts | 43° |
| 2026-05-05 17:28 | 48.74625 | 9.12026 | 5056 ft | 256 kts | 44° |
| 2026-05-05 17:28 | 48.75883 | 9.13893 | 5054 ft | 257 kts | 44° |
| 2026-05-05 17:28 | 48.77176 | 9.15791 | 5047 ft | 254 kts | 42° |
| 2026-05-05 17:28 | 48.78460 | 9.17648 | 5057 ft | 255 kts | 49° |
| 2026-05-05 17:29 | 48.79419 | 9.19903 | 5068 ft | 255 kts | 68° |
| 2026-05-05 17:29 | 48.79990 | 9.22451 | 5057 ft | 257 kts | 73° |
| 2026-05-05 17:29 | 48.80514 | 9.25035 | 5030 ft | 255 kts | 73° |
| 2026-05-05 17:29 | 48.81039 | 9.27592 | 5047 ft | 254 kts | 74° |
| 2026-05-05 17:30 | 48.81552 | 9.30129 | 5060 ft | 255 kts | 74° |
| 2026-05-05 17:30 | 48.82067 | 9.32710 | 5077 ft | 255 kts | 75° |
| 2026-05-05 17:30 | 48.82586 | 9.35284 | 5065 ft | 256 kts | 74° |
| 2026-05-05 17:30 | 48.83123 | 9.37872 | 5042 ft | 257 kts | 74° |
| 2026-05-05 17:31 | 48.83582 | 9.40499 | 5032 ft | 257 kts | 82° |
| 2026-05-05 17:31 | 48.83742 | 9.43186 | 5013 ft | 255 kts | 92° |
| 2026-05-05 17:31 | 48.83713 | 9.45859 | 5011 ft | 252 kts | 94° |
| 2026-05-05 17:31 | 48.83656 | 9.48526 | 5027 ft | 253 kts | 95° |
| 2026-05-05 17:32 | 48.83341 | 9.51111 | 5052 ft | 248 kts | 115° |
| 2026-05-05 17:32 | 48.82380 | 9.53213 | 5058 ft | 241 kts | 145° |
| 2026-05-05 17:32 | 48.80929 | 9.54378 | 5055 ft | 236 kts | 163° |
| 2026-05-05 17:32 | 48.79380 | 9.55238 | 4946 ft | 237 kts | 164° |
| 2026-05-05 17:33 | 48.77805 | 9.55798 | 4705 ft | 229 kts | 182° |
| 2026-05-05 17:33 | 48.76286 | 9.55331 | 4446 ft | 220 kts | 208° |
| 2026-05-05 17:33 | 48.75136 | 9.53956 | 4210 ft | 211 kts | 234° |
| 2026-05-05 17:33 | 48.74622 | 9.51945 | 4042 ft | 202 kts | 257° |
| 2026-05-05 17:34 | 48.74317 | 9.49938 | 3990 ft | 189 kts | 256° |
| 2026-05-05 17:34 | 48.74001 | 9.48099 | 3983 ft | 173 kts | 253° |
| 2026-05-05 17:34 | 48.73667 | 9.46298 | 3964 ft | 181 kts | 252° |
| 2026-05-05 17:34 | 48.73314 | 9.44480 | 3912 ft | 181 kts | 253° |
| 2026-05-05 17:35 | 48.72950 | 9.42651 | 3715 ft | 181 kts | 251° |
| 2026-05-05 17:35 | 48.72563 | 9.40834 | 3445 ft | 181 kts | 251° |
| 2026-05-05 17:35 | 48.72184 | 9.39021 | 3195 ft | 181 kts | 252° |
| 2026-05-05 17:35 | 48.71828 | 9.37204 | 2965 ft | 179 kts | 255° |
| 2026-05-05 17:36 | 48.71516 | 9.35377 | 2716 ft | 178 kts | 254° |
| 2026-05-05 17:36 | 48.71196 | 9.33652 | 2459 ft | 164 kts | 253° |
| 2026-05-05 17:36 | 48.70891 | 9.32065 | 2249 ft | 145 kts | 252° |
| 2026-05-05 17:36 | 48.70623 | 9.30673 | 2042 ft | 140 kts | 254° |
| 2026-05-05 17:37 | 48.70343 | 9.29238 | 1860 ft | 141 kts | 253° |
| 2026-05-05 17:37 | 48.70137 | 9.28296 | 1756 ft | 138 kts | 253° |
| 2026-05-05 17:37 | 48.69792 | 9.26454 | 1502 ft | 135 kts | 254° |
| 2026-05-05 17:37 | 48.69540 | 9.25100 | 1331 ft | 134 kts | 254° |
| 2026-05-05 17:38 | 48.69284 | 9.23764 | 1209 ft | 128 kts | 254° |
| 2026-05-05 17:38 | 48.69074 | 9.22645 | 1229 ft | 94 kts | 253° |
| 2026-05-05 17:38 | 48.68915 | 9.21813 | 1256 ft | 71 kts | 255° |
| 2026-05-05 17:38 | 48.68825 | 9.21346 | 1258 ft | 32 kts | 252° |
| 2026-05-05 17:39 | 48.68821 | 9.21081 | 1268 ft | 18 kts | 281° |
| 2026-05-05 17:39 | 48.68845 | 9.20931 | 1268 ft | 13 kts | 284° |
| 2026-05-05 17:39 | 48.68860 | 9.20839 | 1271 ft | 6 kts | 284° |
| 2026-05-05 17:39 | 48.68861 | 9.20829 | 1271 ft | 0 kts | 284° |
| 2026-05-05 17:40 | 48.68862 | 9.20829 | 1271 ft | 0 kts | 284° |
| 2026-05-05 17:41 | 48.68862 | 9.20823 | 1271 ft | 1 kts | 284° |
| 2026-05-05 17:41 | 48.68867 | 9.20796 | 1272 ft | 7 kts | 283° |
| 2026-05-05 17:41 | 48.68876 | 9.20681 | 1274 ft | 14 kts | 259° |
| 2026-05-05 17:41 | 48.68848 | 9.20532 | 1278 ft | 16 kts | 254° |
| 2026-05-05 17:42 | 48.68816 | 9.20364 | 1284 ft | 16 kts | 254° |
| 2026-05-05 17:42 | 48.68786 | 9.20202 | 1288 ft | 16 kts | 254° |
| 2026-05-05 17:42 | 48.68758 | 9.20045 | 1289 ft | 15 kts | 267° |
| 2026-05-05 17:42 | 48.68765 | 9.19889 | 1292 ft | 15 kts | 258° |
| 2026-05-05 17:43 | 48.68737 | 9.19744 | 1295 ft | 15 kts | 253° |
| 2026-05-05 17:43 | 48.68706 | 9.19581 | 1295 ft | 17 kts | 255° |
| 2026-05-05 17:43 | 48.68672 | 9.19394 | 1295 ft | 19 kts | 254° |
| 2026-05-05 17:43 | 48.68645 | 9.19213 | 1295 ft | 16 kts | 279° |
| 2026-05-05 17:44 | 48.68718 | 9.19151 | 1295 ft | 14 kts | 347° |
| 2026-05-05 17:44 | 48.68770 | 9.19196 | 1295 ft | 7 kts | 70° |
| 2026-05-05 17:44 | 48.68775 | 9.19216 | 1295 ft | 4 kts | 70° |
| 2026-05-05 17:44 | 48.68811 | 9.19230 | 1295 ft | 9 kts | 345° |
| 2026-05-05 17:45 | 48.68847 | 9.19218 | 1295 ft | 4 kts | 345° |
| 2026-05-05 17:45 | 48.68862 | 9.19211 | 1295 ft | 0 kts | 344° |